createdAt,value
2018-11-12T06:36:04.904Z,46.85
2018-11-12T06:38:34.175Z,47.18
2018-11-12T06:41:03.364Z,46.80
2018-11-12T06:43:32.578Z,46.72
2018-11-12T06:46:01.881Z,46.18
2018-11-12T06:48:30.962Z,46.18
2018-11-12T06:51:00.210Z,45.82
2018-11-12T06:53:29.590Z,45.90
2018-11-12T06:55:59.173Z,46.00
2018-11-12T06:58:28.281Z,46.23
2018-11-12T07:00:57.586Z,45.75
2018-11-12T07:03:26.644Z,45.64
2018-11-12T07:05:55.638Z,45.53
2018-11-12T07:08:24.823Z,45.70
2018-11-12T07:10:54.047Z,46.06
2018-11-12T07:13:23.204Z,45.46
2018-11-12T07:15:52.227Z,45.50
2018-11-12T07:18:21.369Z,45.49
2018-11-12T07:20:50.494Z,45.74
2018-11-12T07:23:19.630Z,45.72
2018-11-12T07:25:48.729Z,45.75
2018-11-12T07:28:17.950Z,45.49
2018-11-12T07:30:47.200Z,45.63
2018-11-12T07:33:16.667Z,45.83
2018-11-12T07:35:45.736Z,46.29
2018-11-12T07:38:14.866Z,45.48
2018-11-12T07:40:43.988Z,45.79
2018-11-12T07:43:13.152Z,45.54
2018-11-12T07:45:42.214Z,46.14
2018-11-12T07:48:12.199Z,45.96
2018-11-12T07:50:41.366Z,45.80
2018-11-12T07:53:10.509Z,45.65
2018-11-12T07:55:39.628Z,45.84
2018-11-12T07:58:08.742Z,45.67
2018-11-12T08:00:37.823Z,46.21
2018-11-12T08:03:08.420Z,46.05
2018-11-12T08:05:37.930Z,46.23
2018-11-12T08:08:07.529Z,46.09
2018-11-12T08:10:36.699Z,45.59
2018-11-12T08:13:05.985Z,45.65
2018-11-12T08:15:35.059Z,45.68
2018-11-12T08:18:04.150Z,46.37
2018-11-12T08:20:33.282Z,45.81
2018-11-12T08:23:02.320Z,45.83
2018-11-12T08:25:31.479Z,45.71
2018-11-12T08:28:00.817Z,45.34
2018-11-12T08:30:30.493Z,45.72
2018-11-12T08:33:00.609Z,45.51
2018-11-12T08:35:29.613Z,45.89
2018-11-12T08:37:59.096Z,45.51
2018-11-12T08:40:29.200Z,45.54
2018-11-12T08:42:58.330Z,45.18
2018-11-12T08:45:27.537Z,45.56
2018-11-12T08:47:57.377Z,45.54
2018-11-12T08:50:27.435Z,45.43
2018-11-12T08:52:57.209Z,45.70
2018-11-12T08:55:27.788Z,45.12
2018-11-12T08:57:59.189Z,45.18
2018-11-12T09:00:28.917Z,45.46
2018-11-12T09:02:57.978Z,45.06
2018-11-12T09:05:28.319Z,45.27
2018-11-12T09:07:58.677Z,45.50
2018-11-12T09:10:29.262Z,45.67
2018-11-12T09:12:58.567Z,45.65
2018-11-12T09:15:28.208Z,45.59
2018-11-12T09:17:57.323Z,45.96
2018-11-12T09:20:27.597Z,45.89
2018-11-12T09:22:57.012Z,45.92
2018-11-12T09:25:27.111Z,45.56
2018-11-12T09:27:56.589Z,46.03
2018-11-12T09:30:26.866Z,45.39
2018-11-12T09:32:56.022Z,46.05
2018-11-12T09:35:26.361Z,45.83
2018-11-12T09:37:56.405Z,46.40
2018-11-12T09:40:31.798Z,46.46
2018-11-12T09:43:00.875Z,46.75
2018-11-12T09:45:30.135Z,46.40
2018-11-12T09:47:59.437Z,46.64
2018-11-12T09:50:29.175Z,46.77
2018-11-12T09:52:59.479Z,46.45
2018-11-12T09:55:29.740Z,46.40
2018-11-12T09:58:02.963Z,45.79
2018-11-12T10:00:32.249Z,45.79
2018-11-12T10:03:02.035Z,46.08
2018-11-12T10:05:32.393Z,45.64
2018-11-12T10:08:09.151Z,45.50
2018-11-12T10:10:43.652Z,45.10
2018-11-12T10:13:15.262Z,45.10
2018-11-12T10:15:44.647Z,45.52
2018-11-12T10:20:40.184Z,45.14
2018-11-12T10:23:09.499Z,44.67
2018-11-12T10:25:38.787Z,45.35
2018-11-12T10:28:07.962Z,45.15
2018-11-12T10:30:37.503Z,45.01
2018-11-12T10:33:07.972Z,44.42
2018-11-12T10:35:37.207Z,44.60
2018-11-12T10:38:06.858Z,44.98
2018-11-12T10:40:36.057Z,44.80
2018-11-12T10:43:05.313Z,44.84
2018-11-12T10:45:34.451Z,44.39
2018-11-12T10:48:03.710Z,44.77
2018-11-12T10:50:32.905Z,44.54
2018-11-12T10:53:02.803Z,44.26
2018-11-12T10:55:32.069Z,44.40
2018-11-12T10:58:01.266Z,44.35
2018-11-12T11:00:36.544Z,44.34
2018-11-12T11:03:12.102Z,44.75
2018-11-12T11:05:42.320Z,44.79
2018-11-12T11:08:11.552Z,44.74
2018-11-12T11:10:40.609Z,44.09
2018-11-12T11:13:09.784Z,44.82
2018-11-12T11:15:39.334Z,43.88
2018-11-12T11:18:08.473Z,43.34
2018-11-12T11:20:37.633Z,43.96
2018-11-12T11:23:07.465Z,43.28
2018-11-12T11:25:36.816Z,43.30
2018-11-12T11:28:06.022Z,43.60
2018-11-12T11:30:35.163Z,43.38
2018-11-12T11:33:04.189Z,42.45
2018-11-12T11:35:33.280Z,42.72
2018-11-12T11:38:02.458Z,41.99
2018-11-12T11:40:31.487Z,42.03
2018-11-12T11:43:00.618Z,41.77
2018-11-12T11:45:29.806Z,41.77
2018-11-12T11:47:59.351Z,41.55
2018-11-12T11:50:28.582Z,41.12
2018-11-12T11:52:57.539Z,41.68
2018-11-12T11:55:26.636Z,41.70
2018-11-12T11:57:55.777Z,41.75
2018-11-12T12:00:26.115Z,41.94
2018-11-12T12:02:56.358Z,42.07
2018-11-12T12:05:26.120Z,41.86
2018-11-12T12:07:55.968Z,41.32
2018-11-12T12:10:25.112Z,40.91
2018-11-12T12:12:54.225Z,40.99
2018-11-12T12:15:24.160Z,42.39
2018-11-12T12:17:53.232Z,42.68
2018-11-12T12:20:24.585Z,43.11
2018-11-12T12:22:54.113Z,43.16
2018-11-12T12:25:23.854Z,43.40
2018-11-12T12:27:52.982Z,43.20
2018-11-12T12:30:29.286Z,43.58
2018-11-12T12:32:58.981Z,42.95
2018-11-12T12:35:28.195Z,43.57
2018-11-12T12:37:58.038Z,43.05
2018-11-12T12:40:27.473Z,42.98
2018-11-12T12:42:56.571Z,43.14
2018-11-12T12:45:27.015Z,43.10
2018-11-12T12:47:57.033Z,43.21
2018-11-12T12:50:26.105Z,43.22
2018-11-12T12:52:55.103Z,43.03
2018-11-12T12:55:24.733Z,42.78
2018-11-12T12:57:53.827Z,43.15
2018-11-12T13:00:26.577Z,42.49
2018-11-12T13:02:55.831Z,42.62
2018-11-12T13:05:24.985Z,42.83
2018-11-12T13:07:54.241Z,43.21
2018-11-12T13:10:24.147Z,42.83
2018-11-12T13:12:53.205Z,43.24
2018-11-12T13:15:23.833Z,42.65
2018-11-12T13:17:53.607Z,42.72
2018-11-12T13:20:24.038Z,42.70
2018-11-12T13:22:53.565Z,43.21
2018-11-12T13:25:22.971Z,43.14
2018-11-12T13:27:52.044Z,42.86
2018-11-12T13:30:22.355Z,43.21
2018-11-12T13:32:51.601Z,42.86
2018-11-12T13:35:22.290Z,42.80
2018-11-12T13:37:51.459Z,43.17
2018-11-12T13:40:21.965Z,43.05
2018-11-12T13:42:54.447Z,42.86
2018-11-12T13:45:25.030Z,43.32
2018-11-12T13:47:54.458Z,42.99
2018-11-12T13:50:24.827Z,43.48
2018-11-12T13:52:54.459Z,43.59
2018-11-12T13:55:24.278Z,43.19
2018-11-12T13:57:53.529Z,43.31
2018-11-12T14:00:24.131Z,43.18
2018-11-12T14:02:53.913Z,42.74
2018-11-12T14:05:24.029Z,42.75
2018-11-12T14:07:53.173Z,43.14
2018-11-12T14:10:24.057Z,43.01
2018-11-12T14:12:54.011Z,42.67
2018-11-12T14:15:23.797Z,43.28
2018-11-12T14:17:53.480Z,42.90
2018-11-12T14:20:23.227Z,43.42
2018-11-12T14:22:52.221Z,42.75
2018-11-12T14:25:22.125Z,43.44
2018-11-12T14:27:52.619Z,43.44
2018-11-12T14:30:23.454Z,43.51
2018-11-12T14:32:52.555Z,43.13
2018-11-12T14:35:21.748Z,43.58
2018-11-12T14:37:50.889Z,43.73
2018-11-12T14:40:20.337Z,43.54
2018-11-12T14:42:49.435Z,43.40
2018-11-12T14:45:19.928Z,43.26
2018-11-12T14:47:49.569Z,43.51
2018-11-12T14:50:18.895Z,43.35
2018-11-12T14:52:48.361Z,43.59
2018-11-12T14:55:18.140Z,43.59
2018-11-12T14:57:47.293Z,44.02
2018-11-12T15:00:49.865Z,43.69
2018-11-12T15:03:19.103Z,44.00
2018-11-12T15:05:48.262Z,43.90
2018-11-12T15:08:17.251Z,44.04
2018-11-12T15:10:46.382Z,44.38
2018-11-12T15:13:15.630Z,44.24
2018-11-12T15:15:44.753Z,44.71
2018-11-12T15:18:13.747Z,44.07
2018-11-12T15:20:42.935Z,43.93
2018-11-12T15:25:40.626Z,43.54
2018-11-12T15:28:09.901Z,43.57
2018-11-12T15:30:39.335Z,43.85
2018-11-12T15:33:08.434Z,43.25
2018-11-12T15:35:37.553Z,43.66
2018-11-12T15:38:06.824Z,43.12
2018-11-12T15:40:36.069Z,43.09
2018-11-12T15:43:05.323Z,43.04
2018-11-12T15:48:02.427Z,43.46
2018-11-12T15:50:34.680Z,43.15
2018-11-12T15:53:03.674Z,43.72
2018-11-12T15:55:32.778Z,43.40
2018-11-12T15:58:02.104Z,43.42
2018-11-12T16:00:31.293Z,43.33
2018-11-12T16:03:00.683Z,43.40
2018-11-12T16:05:29.745Z,43.50
2018-11-12T16:07:58.788Z,42.86
2018-11-12T16:10:28.253Z,42.57
2018-11-12T16:12:57.563Z,42.89
2018-11-12T16:15:26.571Z,42.70
2018-11-12T16:17:55.650Z,43.32
2018-11-12T16:20:28.041Z,41.56
2018-11-12T16:22:58.118Z,41.02
2018-11-12T16:25:27.746Z,40.42
2018-11-12T16:27:57.166Z,40.61
2018-11-12T16:30:26.258Z,40.43
2018-11-12T16:32:55.384Z,40.92
2018-11-12T16:35:25.256Z,40.79
2018-11-12T16:37:55.213Z,41.92
2018-11-12T16:40:24.313Z,41.91
2018-11-12T16:42:53.508Z,41.72
2018-11-12T16:45:22.699Z,42.61
2018-11-12T16:47:51.889Z,42.05
2018-11-12T16:50:20.970Z,41.05
2018-11-12T16:52:50.136Z,40.87
2018-11-12T16:55:20.582Z,41.33
2018-11-12T16:57:49.891Z,41.81
2018-11-12T17:00:20.204Z,41.86
2018-11-12T17:02:49.646Z,42.29
2018-11-12T17:05:21.662Z,42.20
2018-11-12T17:07:51.359Z,43.03
2018-11-12T17:10:21.745Z,43.83
2018-11-12T17:12:51.048Z,43.94
2018-11-12T17:15:20.126Z,44.70
2018-11-12T17:17:49.544Z,44.67
2018-11-12T17:20:20.576Z,45.27
2018-11-12T17:22:49.797Z,45.19
2018-11-12T17:25:19.450Z,44.67
2018-11-12T17:27:48.692Z,43.76
2018-11-12T17:30:19.371Z,44.65
2018-11-12T17:32:48.507Z,44.62
2018-11-12T17:35:19.581Z,44.56
2018-11-12T17:37:48.971Z,44.90
2018-11-12T17:40:20.186Z,44.28
2018-11-12T17:42:50.037Z,45.43
2018-11-12T17:45:21.194Z,44.76
2018-11-12T17:47:51.374Z,45.26
2018-11-12T17:50:20.576Z,45.36
2018-11-12T17:52:49.795Z,45.45
2018-11-12T17:55:18.970Z,45.02
2018-11-12T17:57:48.058Z,45.37
2018-11-12T18:00:22.358Z,44.99
2018-11-12T18:02:51.501Z,44.90
2018-11-12T18:05:20.962Z,44.98
2018-11-12T18:07:50.198Z,45.79
2018-11-12T18:10:19.634Z,45.56
2018-11-12T18:12:49.644Z,45.97
2018-11-12T18:15:20.630Z,45.86
2018-11-12T18:17:49.850Z,45.49
2018-11-12T18:20:21.477Z,45.40
2018-11-12T18:22:52.299Z,45.91
2018-11-12T18:25:21.906Z,45.80
2018-11-12T18:27:51.157Z,45.83
2018-11-12T18:30:23.392Z,45.84
2018-11-12T18:32:53.438Z,45.67
2018-11-12T18:35:22.758Z,45.89
2018-11-12T18:37:51.930Z,45.53
2018-11-12T18:40:22.789Z,45.55
2018-11-12T18:42:52.042Z,44.69
2018-11-12T18:45:22.389Z,44.88
2018-11-12T18:47:52.623Z,44.82
2018-11-12T18:50:25.145Z,44.41
2018-11-12T18:52:54.298Z,44.83
2018-11-12T18:55:23.421Z,45.23
2018-11-12T18:57:53.062Z,44.98
2018-11-12T19:00:23.291Z,44.60
2018-11-12T19:02:52.806Z,45.48
2018-11-12T19:05:23.376Z,45.43
2018-11-12T19:07:53.441Z,45.60
2018-11-12T19:10:24.758Z,44.62
2018-11-12T19:12:54.319Z,44.73
2018-11-12T19:15:25.771Z,45.96
2018-11-12T19:17:56.216Z,45.26
2018-11-12T19:20:25.334Z,45.00
2018-11-12T19:22:55.045Z,44.89
2018-11-12T19:25:24.383Z,45.28
2018-11-12T19:27:53.518Z,44.81
2018-11-12T19:30:23.958Z,45.05
2018-11-12T19:32:53.055Z,44.77
2018-11-12T19:35:23.709Z,44.59
2018-11-12T19:37:53.236Z,44.79
2018-11-12T19:40:23.550Z,44.75
2018-11-12T19:42:53.613Z,45.20
2018-11-12T19:45:23.176Z,44.42
2018-11-12T19:47:52.733Z,45.03
2018-11-12T19:50:23.301Z,44.48
2018-11-12T19:52:54.079Z,44.99
2018-11-12T19:55:23.542Z,44.85
2018-11-12T19:57:52.786Z,44.48
2018-11-12T20:00:24.346Z,44.69
2018-11-12T20:02:54.745Z,46.25
2018-11-12T20:05:23.915Z,46.73
2018-11-12T20:07:53.123Z,47.56
2018-11-12T20:10:23.298Z,47.81
2018-11-12T20:12:52.507Z,47.85
2018-11-12T20:15:23.079Z,47.54
2018-11-12T20:17:53.010Z,47.63
2018-11-12T20:20:24.350Z,47.65
2018-11-12T20:22:53.865Z,47.27
2018-11-12T20:25:23.151Z,46.76
2018-11-12T20:27:53.500Z,46.66
2018-11-12T20:30:26.344Z,47.11
2018-11-12T20:32:55.779Z,47.00
2018-11-12T20:35:24.965Z,46.55
2018-11-12T20:37:54.051Z,46.40
2018-11-12T20:40:23.175Z,46.33
2018-11-12T20:42:52.404Z,45.83
2018-11-12T20:45:22.187Z,46.66
2018-11-12T20:47:52.780Z,46.19
2018-11-12T20:50:21.979Z,45.84
2018-11-12T20:52:51.151Z,45.47
2018-11-12T20:55:20.380Z,45.87
2018-11-12T20:57:49.704Z,45.33
2018-11-12T21:00:26.929Z,45.05
2018-11-12T21:02:56.643Z,44.84
2018-11-12T21:05:27.463Z,45.40
2018-11-12T21:07:56.510Z,44.94
2018-11-12T21:10:25.869Z,45.25
2018-11-12T21:12:55.050Z,45.07
2018-11-12T21:15:24.857Z,45.30
2018-11-12T21:17:54.078Z,45.08
2018-11-12T21:20:27.030Z,45.50
2018-11-12T21:22:56.402Z,45.24
2018-11-12T21:25:26.709Z,45.23
2018-11-12T21:27:55.848Z,45.30
2018-11-12T21:30:26.122Z,45.32
2018-11-12T21:32:55.294Z,45.72
2018-11-12T21:35:24.612Z,45.67
2018-11-12T21:37:54.889Z,45.59
2018-11-12T21:40:25.240Z,45.99
2018-11-12T21:42:54.833Z,45.76
2018-11-12T21:45:28.406Z,45.99
2018-11-12T21:47:57.478Z,46.00
2018-11-12T21:50:26.578Z,45.78
2018-11-12T21:52:55.695Z,46.16
2018-11-12T21:55:24.845Z,45.60
2018-11-12T21:57:54.284Z,45.67
2018-11-12T22:00:28.337Z,45.83
2018-11-12T22:02:59.579Z,46.22
2018-11-12T22:05:29.339Z,46.09
2018-11-12T22:07:58.500Z,45.70
2018-11-12T22:10:27.656Z,45.92
2018-11-12T22:12:57.116Z,46.37
2018-11-12T22:15:26.291Z,45.98
2018-11-12T22:17:55.414Z,46.28
2018-11-12T22:20:25.942Z,45.98
2018-11-12T22:22:55.022Z,46.28
2018-11-12T22:25:24.633Z,46.46
2018-11-12T22:27:54.292Z,46.18
2018-11-12T22:30:26.302Z,46.17
2018-11-12T22:32:56.181Z,46.23
2018-11-12T22:35:25.294Z,46.17
2018-11-12T22:37:54.417Z,46.69
2018-11-12T22:40:23.527Z,46.49
2018-11-12T22:42:53.270Z,46.55
2018-11-12T22:45:23.716Z,47.25
2018-11-12T22:47:53.113Z,47.21
2018-11-12T22:50:22.323Z,46.94
2018-11-12T22:52:51.525Z,46.35
2018-11-12T22:55:21.002Z,46.50
2018-11-12T22:57:50.445Z,46.45
2018-11-12T23:00:25.598Z,46.53
2018-11-12T23:02:54.916Z,47.02
2018-11-12T23:05:24.410Z,46.71
2018-11-12T23:07:54.269Z,46.89
2018-11-12T23:10:23.574Z,46.59
2018-11-12T23:12:52.750Z,46.54
2018-11-12T23:15:22.067Z,46.91
2018-11-12T23:17:51.335Z,47.25
2018-11-12T23:20:22.356Z,47.36
2018-11-12T23:22:51.914Z,47.51
2018-11-12T23:25:21.143Z,49.13
2018-11-12T23:27:50.926Z,49.44
2018-11-12T23:30:21.289Z,49.79
2018-11-12T23:32:51.270Z,48.04
2018-11-12T23:35:22.676Z,48.64
2018-11-12T23:37:51.963Z,49.41
2018-11-12T23:40:21.297Z,49.45
2018-11-12T23:42:50.825Z,48.09
2018-11-12T23:45:20.195Z,47.81
2018-11-12T23:47:49.306Z,47.58
2018-11-12T23:50:19.728Z,47.57
2018-11-12T23:52:49.693Z,47.88
2018-11-12T23:55:19.419Z,47.88
2018-11-12T23:57:49.274Z,47.30
